Time;durP1;ratioP1;P1;durP2;ratioP2;P2;SDS_P1;SDS_P2;PMS_P1;PMS_P2;Temp;Humidity;BMP_temperature;BMP_pressure;BME280_temperature;BME280_humidity;BME280_pressure;Samples;Min_cycle;Max_cycle;Signal;HPM_P1;HPM_P2
2024/03/31 00:00:22;;;;;;;6.32;3.10;;;;;;;12.15;82.45;98943.16;5066346;28;20056;-63
2024/03/31 00:02:50;;;;;;;;;;;;;;;11.98;83.28;98954.63;5047606;28;20154;-63
2024/03/31 00:05:17;;;;;;;8.38;3.50;;;;;;;12.03;82.72;98941.34;5037829;28;19925;-65
2024/03/31 00:07:43;;;;;;;5.95;3.10;;;;;;;12.08;82.81;98943.03;5067758;28;20049;-63
2024/03/31 00:10:10;;;;;;;8.98;3.50;;;;;;;11.68;84.60;98946.19;5067846;28;20061;-62
2024/03/31 00:12:37;;;;;;;7.22;3.83;;;;;;;11.98;83.95;98941.66;5049832;28;20044;-63
2024/03/31 00:15:03;;;;;;;9.88;3.80;;;;;;;11.90;83.69;98936.38;5047915;28;20056;-62
2024/03/31 00:17:30;;;;;;;9.27;3.70;;;;;;;12.05;83.74;98938.22;5067220;28;20040;-63
2024/03/31 00:19:56;;;;;;;8.60;3.78;;;;;;;11.65;84.82;98930.38;5060445;28;20059;-63
2024/03/31 00:22:26;;;;;;;8.00;3.55;;;;;;;11.60;85.14;98916.03;5047450;28;20072;-64
2024/03/31 00:24:52;;;;;;;11.68;4.03;;;;;;;11.83;84.96;98920.47;5047877;28;20713;-62
2024/03/31 00:27:19;;;;;;;7.57;3.90;;;;;;;11.90;84.82;98920.63;5059251;28;20768;-63
2024/03/31 00:29:46;;;;;;;8.52;3.80;;;;;;;11.72;85.66;98915.91;5065199;28;20052;-64
2024/03/31 00:32:12;;;;;;;8.95;3.58;;;;;;;11.93;84.66;98919.88;5047071;28;20065;-63
2024/03/31 00:34:38;;;;;;;6.68;3.58;;;;;;;11.66;85.37;98923.69;5046914;28;20053;-64
2024/03/31 00:37:05;;;;;;;6.82;3.63;;;;;;;11.82;84.55;98916.13;5050601;28;20063;-64
2024/03/31 00:39:31;;;;;;;7.72;4.15;;;;;;;11.70;85.14;98907.22;5050901;28;20053;-64
2024/03/31 00:41:58;;;;;;;7.78;4.28;;;;;;;11.61;86.20;98907.38;5067077;28;20135;-64
2024/03/31 00:44:24;;;;;;;7.95;4.10;;;;;;;11.69;86.08;98913.88;5065943;28;20057;-63
2024/03/31 00:46:50;;;;;;;8.57;4.18;;;;;;;11.67;86.43;98905.97;5048876;28;20059;-63
2024/03/31 00:49:17;;;;;;;10.07;4.30;;;;;;;11.50;87.02;98906.41;5066520;28;20475;-67
2024/03/31 00:51:43;;;;;;;10.50;4.35;;;;;;;11.28;88.26;98902.41;5057251;28;20057;-63
2024/03/31 00:54:09;;;;;;;9.32;4.28;;;;;;;11.26;89.43;98909.44;5051285;28;20062;-63
2024/03/31 00:56:36;;;;;;;9.38;4.65;;;;;;;11.21;89.98;98905.00;5065246;28;20048;-62
2024/03/31 00:59:03;;;;;;;7.53;4.57;;;;;;;11.48;88.72;98905.16;5064409;28;20049;-61
2024/03/31 01:01:29;;;;;;;9.18;4.78;;;;;;;11.56;88.33;98910.44;5048585;28;20052;-61
2024/03/31 01:03:56;;;;;;;8.77;4.55;;;;;;;11.60;88.22;98916.03;5023069;28;20048;-61
2024/03/31 01:06:24;;;;;;;7.75;4.32;;;;;;;11.42;88.77;98912.13;5051240;28;20048;-61
2024/03/31 01:08:52;;;;;;;8.77;4.53;;;;;;;11.60;88.90;98921.56;5039665;28;20052;-61
2024/03/31 01:11:19;;;;;;;8.02;4.38;;;;;;;11.64;87.84;98912.22;5039267;28;20061;-61
2024/03/31 01:13:47;;;;;;;8.70;4.32;;;;;;;11.68;88.02;98918.59;5053222;28;20053;-60
2024/03/31 01:16:14;;;;;;;10.85;4.30;;;;;;;11.58;88.55;98907.31;5029155;28;20056;-60
2024/03/31 01:18:40;;;;;;;12.75;4.55;;;;;;;11.52;89.14;98904.09;5045176;28;20567;-61
2024/03/31 01:21:10;;;;;;;9.73;4.00;;;;;;;11.37;89.92;98910.44;5065415;28;20075;-61
2024/03/31 01:23:44;;;;;;;11.93;4.45;;;;;;;11.38;90.44;98901.03;5050148;28;20068;-60
2024/03/31 01:26:12;;;;;;;11.30;4.88;;;;;;;11.07;91.64;98910.22;5031475;28;20060;-60
2024/03/31 01:28:39;;;;;;;11.73;4.30;;;;;;;11.62;91.18;98908.19;5047053;28;20052;-60
2024/03/31 01:31:05;;;;;;;9.32;4.50;;;;;;;11.30;90.93;98907.53;5034219;28;20053;-60
2024/03/31 01:33:31;;;;;;;8.95;4.45;;;;;;;11.35;91.66;98902.53;5048357;28;20048;-60
2024/03/31 01:35:59;;;;;;;13.27;4.25;;;;;;;11.48;91.89;98891.38;5049369;28;20136;-62
2024/03/31 01:38:26;;;;;;;10.35;4.50;;;;;;;11.34;92.12;98900.16;5065646;28;20392;-61
2024/03/31 01:40:52;;;;;;;11.85;4.63;;;;;;;11.19;92.36;98903.78;5065749;28;20044;-61
2024/03/31 01:43:20;;;;;;;8.63;4.13;;;;;;;11.41;92.30;98899.50;5049729;28;20048;-61
2024/03/31 01:45:46;;;;;;;10.95;4.05;;;;;;;11.46;91.20;98893.69;5048458;28;20057;-60
2024/03/31 01:48:13;;;;;;;12.70;3.85;;;;;;;11.26;92.33;98903.94;5064911;28;20049;-61
2024/03/31 01:50:39;;;;;;;9.75;4.20;;;;;;;11.32;92.86;98895.00;5028813;28;20757;-60
2024/03/31 01:53:07;;;;;;;7.35;3.50;;;;;;;11.47;92.28;98885.09;5012778;28;20053;-61
2024/03/31 01:55:34;;;;;;;12.15;3.20;;;;;;;11.42;92.56;98873.53;5025376;28;20487;-61
2024/03/31 01:58:00;;;;;;;11.32;3.50;;;;;;;11.31;93.52;98876.84;5041337;28;20641;-61
2024/03/31 02:00:27;;;;;;;10.85;3.50;;;;;;;11.48;93.51;98877.59;5046599;28;20061;-60
2024/03/31 02:02:54;;;;;;;9.48;3.78;;;;;;;11.45;92.68;98881.06;5040440;28;20073;-60
2024/03/31 02:05:20;;;;;;;9.48;4.28;;;;;;;11.68;92.43;98873.69;5036457;28;20063;-60
2024/03/31 02:07:46;;;;;;;7.70;4.15;;;;;;;11.61;91.90;98868.00;5069804;28;20044;-62
2024/03/31 02:10:13;;;;;;;9.98;3.95;;;;;;;11.49;92.15;98870.94;5049793;28;20060;-62
2024/03/31 02:12:39;;;;;;;12.43;3.97;;;;;;;11.93;91.51;98866.66;5059259;28;20055;-63
2024/03/31 02:15:06;;;;;;;9.35;3.30;;;;;;;11.58;91.28;98875.03;5049319;28;20053;-60
2024/03/31 02:17:32;;;;;;;8.65;3.33;;;;;;;11.61;91.97;98876.28;5049540;28;20057;-60
2024/03/31 02:19:59;;;;;;;11.07;3.80;;;;;;;11.50;92.44;98867.00;5045715;28;20059;-60
2024/03/31 02:22:25;;;;;;;14.93;3.97;;;;;;;11.43;93.28;98866.84;5069640;28;20052;-60
2024/03/31 02:24:51;;;;;;;13.73;3.50;;;;;;;11.39;93.00;98866.78;5050478;28;20060;-61
2024/03/31 02:27:18;;;;;;;11.10;3.60;;;;;;;11.61;92.55;98868.78;5016270;28;20045;-60
2024/03/31 02:29:47;;;;;;;12.98;4.00;;;;;;;11.42;93.06;98865.28;5049687;28;20049;-59
2024/03/31 02:32:13;;;;;;;13.85;4.10;;;;;;;11.64;91.67;98864.50;5049227;28;20291;-61
2024/03/31 02:34:40;;;;;;;8.50;3.70;;;;;;;11.43;92.33;98870.41;5052385;28;20052;-62
2024/03/31 02:37:06;;;;;;;8.75;3.45;;;;;;;11.50;92.41;98869.75;5035613;28;20060;-61
2024/03/31 02:39:32;;;;;;;8.90;3.40;;;;;;;11.59;92.38;98859.31;5058898;28;20056;-62
2024/03/31 02:41:59;;;;;;;13.55;4.03;;;;;;;11.35;92.70;98858.44;5048831;28;20052;-61
2024/03/31 02:44:25;;;;;;;10.00;3.42;;;;;;;11.40;92.87;98864.84;5048185;28;20053;-64
2024/03/31 02:46:52;;;;;;;11.70;3.55;;;;;;;11.81;91.69;98851.09;5048710;28;20057;-61
2024/03/31 02:49:18;;;;;;;8.63;3.20;;;;;;;11.45;92.59;98857.06;5048420;28;20064;-61
2024/03/31 02:51:44;;;;;;;11.90;3.17;;;;;;;11.11;94.63;98850.47;5032475;28;20049;-62
2024/03/31 02:54:11;;;;;;;10.85;3.28;;;;;;;11.10;95.71;98854.41;5032512;28;20048;-61
2024/03/31 02:56:38;;;;;;;10.43;3.42;;;;;;;11.16;96.01;98843.88;5031931;28;20057;-61
2024/03/31 02:59:04;;;;;;;15.05;3.60;;;;;;;11.16;95.91;98841.91;5032489;28;20080;-61
2024/03/31 03:01:33;;;;;;;15.75;3.88;;;;;;;10.99;96.01;98838.78;5032449;28;20053;-60
2024/03/31 03:03:59;;;;;;;14.93;3.50;;;;;;;11.28;96.24;98841.75;5031772;28;20053;-61
2024/03/31 03:06:26;;;;;;;16.50;3.88;;;;;;;11.27;95.15;98837.44;5036389;28;20056;-60
2024/03/31 03:08:52;;;;;;;13.70;3.63;;;;;;;11.37;94.14;98838.00;5051993;28;20041;-60
2024/03/31 03:11:20;;;;;;;14.85;4.10;;;;;;;11.15;95.06;98842.28;5052023;28;20060;-61
2024/03/31 03:13:46;;;;;;;11.95;3.67;;;;;;;11.53;94.64;98833.97;5051693;28;20056;-60
2024/03/31 03:16:14;;;;;;;12.82;4.13;;;;;;;11.81;92.80;98829.03;5054304;28;20064;-61
2024/03/31 03:18:40;;;;;;;14.73;3.50;;;;;;;11.49;92.35;98826.81;5042655;28;20053;-61
2024/03/31 03:21:06;;;;;;;12.77;3.13;;;;;;;11.38;93.86;98825.81;5067979;28;20041;-61
2024/03/31 03:23:33;;;;;;;11.30;3.97;;;;;;;11.26;94.02;98818.50;5068417;28;20528;-62
2024/03/31 03:25:59;;;;;;;12.18;4.13;;;;;;;11.18;94.89;98822.25;5051007;28;20048;-61
2024/03/31 03:28:26;;;;;;;16.63;4.00;;;;;;;11.49;94.05;98813.81;5051585;28;20052;-61
2024/03/31 03:30:54;;;;;;;14.68;3.40;;;;;;;11.69;92.79;98812.66;5051890;28;20104;-61
2024/03/31 03:33:23;;;;;;;12.23;3.55;;;;;;;11.35;93.54;98817.09;5031309;28;20059;-61
2024/03/31 03:35:55;;;;;;;10.55;3.78;;;;;;;11.23;94.54;98811.75;5016885;28;20679;-63
2024/03/31 03:38:22;;;;;;;13.52;3.75;;;;;;;11.18;95.02;98809.28;5060821;28;20411;-61
2024/03/31 03:40:53;;;;;;;11.82;3.83;;;;;;;11.05;96.38;98805.06;5069470;28;20052;-61
2024/03/31 03:43:21;;;;;;;14.88;3.55;;;;;;;11.36;95.93;98801.38;5052105;28;20048;-61
2024/03/31 03:45:52;;;;;;;14.98;3.67;;;;;;;11.07;96.77;98801.97;5052723;28;20063;-61
2024/03/31 03:48:19;;;;;;;14.32;3.88;;;;;;;10.83;97.96;98799.47;5051665;28;20045;-60
2024/03/31 03:50:46;;;;;;;16.20;3.83;;;;;;;11.02;96.86;98797.53;5048361;28;20045;-60
2024/03/31 03:53:12;;;;;;;12.65;3.97;;;;;;;11.03;96.46;98796.41;5031432;28;20057;-60
2024/03/31 03:55:43;;;;;;;13.57;3.80;;;;;;;10.87;96.66;98790.16;5016353;28;20049;-60
2024/03/31 03:58:12;;;;;;;16.20;4.28;;;;;;;10.88;97.91;98794.50;5031366;28;20045;-60
2024/03/31 04:00:39;;;;;;;11.77;4.05;;;;;;;11.01;97.18;98795.16;5030794;28;20049;-61
2024/03/31 04:03:06;;;;;;;12.50;4.30;;;;;;;11.14;96.29;98791.09;5024126;28;20052;-61
2024/03/31 04:05:32;;;;;;;10.57;4.00;;;;;;;11.00;96.81;98791.59;5050828;28;20063;-59
2024/03/31 04:07:58;;;;;;;12.75;3.95;;;;;;;11.05;96.62;98790.53;5050915;28;20071;-60
2024/03/31 04:10:24;;;;;;;11.00;3.90;;;;;;;10.71;97.69;98777.59;5051072;28;20044;-60
2024/03/31 04:12:51;;;;;;;14.90;4.10;;;;;;;10.78;98.74;98780.50;5050144;28;20061;-60
2024/03/31 04:15:19;;;;;;;13.95;4.30;;;;;;;11.03;98.09;98779.88;5050551;28;20052;-61
2024/03/31 04:17:45;;;;;;;14.10;4.75;;;;;;;11.03;97.06;98779.88;5049590;28;20507;-61
2024/03/31 04:20:11;;;;;;;16.58;4.72;;;;;;;10.95;96.67;98772.59;5067177;28;20063;-61
2024/03/31 04:22:39;;;;;;;16.83;4.57;;;;;;;11.09;96.29;98767.38;5067140;28;20060;-61
2024/03/31 04:25:06;;;;;;;16.75;3.78;;;;;;;11.22;95.35;98768.03;5067104;28;20439;-61
2024/03/31 04:27:32;;;;;;;13.27;3.70;;;;;;;10.97;96.55;98766.72;5033698;28;20052;-60
2024/03/31 04:30:00;;;;;;;17.25;3.42;;;;;;;11.03;95.90;98770.78;5050538;28;20091;-61
2024/03/31 04:32:26;;;;;;;21.40;4.13;;;;;;;10.86;97.39;98768.50;5065788;28;20099;-61
2024/03/31 04:34:53;;;;;;;13.60;3.53;;;;;;;10.81;97.40;98771.53;5066883;28;20048;-61
2024/03/31 04:37:20;;;;;;;17.17;3.95;;;;;;;10.73;97.56;98758.75;5033672;28;20408;-62
2024/03/31 04:39:50;;;;;;;15.48;3.75;;;;;;;10.40;100.00;98758.44;5066703;28;20060;-60
2024/03/31 04:42:17;;;;;;;11.32;3.78;;;;;;;10.66;100.00;98756.66;5050760;28;20052;-61
2024/03/31 04:44:44;;;;;;;12.88;3.83;;;;;;;10.73;98.74;98756.00;5046862;28;20138;-60
2024/03/31 04:47:10;;;;;;;17.05;4.85;;;;;;;10.81;98.53;98746.75;5033999;28;20057;-60
2024/03/31 04:49:40;;;;;;;17.48;4.20;;;;;;;10.60;98.20;98755.34;5033627;28;20060;-61
2024/03/31 04:52:07;;;;;;;12.25;4.03;;;;;;;10.62;99.21;98755.78;5066972;28;20060;-61
2024/03/31 04:54:33;;;;;;;14.00;3.83;;;;;;;10.35;100.00;98755.97;5050795;28;20068;-61
2024/03/31 04:57:00;;;;;;;14.05;4.47;;;;;;;10.42;100.00;98758.88;5050272;28;20570;-61
2024/03/31 04:59:26;;;;;;;13.00;4.22;;;;;;;10.54;100.00;98756.00;5083580;28;20598;-60
2024/03/31 05:01:52;;;;;;;12.98;4.10;;;;;;;10.33;100.00;98761.84;5066504;28;20048;-60
2024/03/31 05:04:19;;;;;;;13.75;4.40;;;;;;;10.74;100.00;98758.38;5066124;28;20052;-61
2024/03/31 05:06:46;;;;;;;13.43;4.75;;;;;;;10.71;98.76;98756.38;5033295;28;20052;-61
2024/03/31 05:09:12;;;;;;;16.13;4.30;;;;;;;10.78;98.60;98755.72;5066018;28;20051;-61
2024/03/31 05:11:39;;;;;;;11.15;3.85;;;;;;;10.71;98.54;98758.31;5066098;28;20040;-61
2024/03/31 05:14:05;;;;;;;14.75;4.82;;;;;;;11.09;97.05;98752.78;5049516;28;20060;-61
2024/03/31 05:16:35;;;;;;;14.50;3.97;;;;;;;10.71;97.20;98748.09;5049741;28;20048;-61
2024/03/31 05:19:02;;;;;;;14.63;4.10;;;;;;;10.88;97.02;98746.91;5032691;28;20302;-60
2024/03/31 05:21:28;;;;;;;16.08;3.97;;;;;;;10.65;97.70;98743.25;5049592;28;20055;-61
2024/03/31 05:23:55;;;;;;;14.63;4.55;;;;;;;10.53;98.76;98738.66;5066256;28;20051;-61
2024/03/31 05:26:32;;;;;;;14.70;4.43;;;;;;;10.78;98.44;98748.25;5050813;28;20082;-61
2024/03/31 05:28:59;;;;;;;17.17;4.00;;;;;;;10.63;97.81;98749.13;5043215;28;20048;-60
2024/03/31 05:31:25;;;;;;;16.08;4.00;;;;;;;10.63;97.66;98751.88;5040448;28;20053;-61
2024/03/31 05:34:19;;;;;;;12.77;3.58;;;;;;;10.69;98.38;98744.09;5048883;28;20057;-62
2024/03/31 05:36:45;;;;;;;15.18;4.05;;;;;;;10.71;98.54;98745.34;5029092;28;20071;-62
2024/03/31 05:39:12;;;;;;;19.98;4.18;;;;;;;10.83;97.59;98750.72;5059107;28;20056;-61
2024/03/31 05:41:38;;;;;;;12.48;4.10;;;;;;;10.83;96.92;98753.47;5032761;28;20075;-61
2024/03/31 05:44:04;;;;;;;15.57;3.72;;;;;;;10.72;97.61;98749.69;5035614;28;20059;-60
2024/03/31 05:46:31;;;;;;;12.00;4.03;;;;;;;10.73;96.81;98750.50;5047483;28;20052;-61
2024/03/31 05:48:58;;;;;;;14.60;3.40;;;;;;;10.46;98.59;98746.00;5012633;28;20689;-62
2024/03/31 05:51:30;;;;;;;18.55;4.28;;;;;;;10.54;98.70;98754.03;5046367;28;20052;-61
2024/03/31 05:53:57;;;;;;;16.30;4.22;;;;;;;10.48;98.31;98749.97;5029258;28;20053;-60
2024/03/31 05:56:24;;;;;;;17.02;3.92;;;;;;;10.60;97.53;98752.59;5046031;28;20056;-62
2024/03/31 05:58:50;;;;;;;13.82;3.83;;;;;;;10.68;97.96;98750.78;5045450;28;20049;-62
2024/03/31 06:01:19;;;;;;;13.43;4.00;;;;;;;10.72;96.88;98751.66;5046056;28;20053;-62
2024/03/31 06:03:47;;;;;;;16.13;3.60;;;;;;;10.58;96.46;98745.88;5031612;28;20056;-61
2024/03/31 06:06:14;;;;;;;16.75;3.90;;;;;;;10.96;96.81;98745.88;5048423;28;20060;-61
2024/03/31 06:08:40;;;;;;;15.85;4.13;;;;;;;11.05;95.10;98749.97;5065351;28;20047;-61
2024/03/31 06:11:07;;;;;;;15.30;3.33;;;;;;;10.92;93.85;98742.22;5032439;28;20068;-61
2024/03/31 06:13:33;;;;;;;15.68;3.60;;;;;;;10.91;95.32;98752.44;5049053;28;20508;-60
2024/03/31 06:16:02;;;;;;;17.80;4.05;;;;;;;10.98;94.15;98743.53;5057674;28;20057;-61
2024/03/31 06:18:28;;;;;;;15.40;3.67;;;;;;;11.20;92.86;98740.84;5065457;28;20052;-60
2024/03/31 06:20:55;;;;;;;12.55;3.30;;;;;;;10.97;93.35;98742.75;5048602;28;20847;-61
2024/03/31 06:23:22;;;;;;;15.45;3.47;;;;;;;10.78;93.17;98742.75;5032077;28;20052;-62
2024/03/31 06:25:56;;;;;;;15.05;3.55;;;;;;;10.90;93.79;98733.53;5032315;28;20052;-61
2024/03/31 06:28:23;;;;;;;12.90;3.90;;;;;;;11.10;91.94;98735.94;5065785;28;20067;-61
2024/03/31 06:30:50;;;;;;;13.63;2.95;;;;;;;10.92;92.69;98733.97;5048964;28;20044;-60
2024/03/31 06:33:17;;;;;;;18.70;3.22;;;;;;;10.68;93.76;98726.00;5045637;28;20053;-60
2024/03/31 06:35:43;;;;;;;14.05;3.08;;;;;;;10.83;94.50;98727.88;5046024;28;20053;-60
2024/03/31 06:38:11;;;;;;;10.85;3.05;;;;;;;11.05;92.56;98732.66;5057395;28;20048;-62
2024/03/31 06:40:37;;;;;;;10.13;2.65;;;;;;;11.12;91.24;98725.31;5013481;28;20067;-61
2024/03/31 06:43:06;;;;;;;14.98;3.05;;;;;;;11.24;91.19;98733.41;5017467;28;20057;-61
2024/03/31 06:45:33;;;;;;;13.30;3.25;;;;;;;11.21;90.03;98722.31;5032559;28;20507;-62
2024/03/31 06:47:59;;;;;;;19.25;3.15;;;;;;;11.03;90.63;98727.53;5051878;28;20071;-61
2024/03/31 06:50:25;;;;;;;15.35;3.67;;;;;;;11.28;90.13;98719.69;5051434;28;20048;-62
2024/03/31 06:52:52;;;;;;;15.18;3.35;;;;;;;11.26;90.36;98731.09;5052568;28;20072;-63
2024/03/31 06:55:18;;;;;;;16.67;3.47;;;;;;;11.20;89.98;98716.03;5043174;28;20053;-64
2024/03/31 06:57:44;;;;;;;17.63;3.13;;;;;;;11.33;89.83;98716.66;5048149;28;20507;-64
2024/03/31 07:00:14;;;;;;;18.30;3.17;;;;;;;11.47;88.76;98713.34;5058664;28;20049;-62
2024/03/31 07:02:41;;;;;;;21.13;4.25;;;;;;;11.53;88.13;98714.63;5051518;28;20048;-62
2024/03/31 07:05:08;;;;;;;19.70;3.33;;;;;;;11.71;87.52;98713.00;5051874;28;20067;-61
2024/03/31 07:07:34;;;;;;;13.88;3.30;;;;;;;11.73;85.66;98711.47;5068427;28;20052;-62
2024/03/31 07:10:00;;;;;;;18.92;3.90;;;;;;;11.75;85.56;98717.38;5048163;28;20052;-62
2024/03/31 07:12:27;;;;;;;13.32;3.33;;;;;;;11.83;85.40;98710.03;5050556;28;20053;-63
2024/03/31 07:14:57;;;;;;;19.85;3.25;;;;;;;11.86;85.11;98717.56;5050962;28;20586;-61
2024/03/31 07:17:24;;;;;;;17.05;3.35;;;;;;;12.01;85.27;98711.13;5050707;28;20048;-62
2024/03/31 07:19:50;;;;;;;16.75;3.75;;;;;;;11.87;84.21;98710.91;5051099;28;20048;-62
2024/03/31 07:22:17;;;;;;;20.38;3.83;;;;;;;12.04;83.85;98697.38;5050968;28;20064;-62
2024/03/31 07:24:43;;;;;;;10.95;3.03;;;;;;;11.98;84.05;98698.84;5051701;28;20091;-63
2024/03/31 07:27:10;;;;;;;15.77;3.45;;;;;;;12.17;82.88;98697.94;5067854;28;20163;-61
2024/03/31 07:29:36;;;;;;;14.95;3.22;;;;;;;12.52;80.02;98694.88;5068080;28;20052;-66
2024/03/31 07:32:02;;;;;;;14.82;3.63;;;;;;;12.37;80.58;98697.44;5064936;28;20045;-61
2024/03/31 07:34:29;;;;;;;13.88;2.95;;;;;;;12.38;80.58;98684.41;5050255;28;20056;-62
2024/03/31 07:36:55;;;;;;;17.27;3.25;;;;;;;12.59;80.13;98687.47;5036869;28;20057;-61
2024/03/31 07:39:22;;;;;;;18.88;3.30;;;;;;;12.62;79.17;98680.41;5067494;28;20523;-61
2024/03/31 07:41:48;;;;;;;12.75;2.80;;;;;;;12.88;78.61;98672.81;5067966;28;20060;-61
2024/03/31 07:44:15;;;;;;;16.15;3.10;;;;;;;12.84;77.85;98660.94;5067628;28;20048;-61
2024/03/31 07:46:42;;;;;;;16.05;3.00;;;;;;;12.97;77.29;98664.22;5084613;28;20052;-62
2024/03/31 07:49:08;;;;;;;12.27;3.05;;;;;;;12.63;76.49;98665.41;5067657;28;20048;-63
2024/03/31 07:51:35;;;;;;;11.52;2.28;;;;;;;12.57;77.40;98666.94;5051335;28;20053;-63
2024/03/31 07:54:01;;;;;;;15.07;3.05;;;;;;;12.72;76.90;98668.66;5067055;28;20048;-63
2024/03/31 07:56:28;;;;;;;12.40;2.33;;;;;;;12.86;75.02;98677.13;5049895;28;20052;-62
2024/03/31 07:58:54;;;;;;;14.02;2.22;;;;;;;12.93;74.82;98669.72;5067744;28;20045;-63
2024/03/31 08:01:20;;;;;;;11.90;2.15;;;;;;;12.57;74.51;98669.69;5067578;28;20056;-63
2024/03/31 08:03:46;;;;;;;8.18;2.03;;;;;;;12.49;74.63;98674.31;5067589;28;20063;-62
2024/03/31 08:06:13;;;;;;;8.60;2.35;;;;;;;12.80;73.83;98668.38;5068070;28;20056;-62
2024/03/31 08:08:39;;;;;;;10.60;2.60;;;;;;;12.96;73.64;98674.47;5068272;28;20052;-63
2024/03/31 08:11:05;;;;;;;8.30;2.08;;;;;;;12.81;73.08;98671.94;5059789;28;20052;-62
2024/03/31 08:13:31;;;;;;;12.70;2.15;;;;;;;12.89;73.60;98668.06;5051145;28;20056;-63
2024/03/31 08:15:58;;;;;;;12.27;2.38;;;;;;;13.23;72.05;98669.66;5067023;28;20047;-63
2024/03/31 08:18:24;;;;;;;13.35;2.63;;;;;;;13.27;72.26;98671.28;5067305;28;20573;-61
2024/03/31 08:20:50;;;;;;;8.90;2.35;;;;;;;12.99;72.52;98670.94;5066693;28;20064;-62
2024/03/31 08:23:17;;;;;;;10.25;2.00;;;;;;;13.09;72.86;98675.81;5067301;28;20052;-62
2024/03/31 08:25:50;;;;;;;11.57;2.00;;;;;;;12.98;72.00;98669.38;5066576;28;20052;-61
2024/03/31 08:28:16;;;;;;;9.27;1.70;;;;;;;13.17;71.97;98677.50;5044829;28;20052;-62
2024/03/31 08:30:43;;;;;;;9.35;1.58;;;;;;;13.25;72.03;98665.31;5043426;28;20057;-62
2024/03/31 08:33:09;;;;;;;16.80;2.38;;;;;;;13.53;71.53;98676.66;5047129;28;20048;-61
2024/03/31 08:35:35;;;;;;;6.25;1.80;;;;;;;13.52;70.77;98672.31;5047551;28;20061;-62
2024/03/31 08:38:02;;;;;;;13.95;1.92;;;;;;;13.42;71.29;98674.97;5052964;28;20797;-62
2024/03/31 08:40:31;;;;;;;12.60;1.85;;;;;;;13.67;70.98;98680.72;5030498;28;20060;-62
2024/03/31 08:43:05;;;;;;;9.38;1.92;;;;;;;13.38;71.38;98682.44;5030344;28;20628;-61
2024/03/31 08:45:34;;;;;;;10.52;1.90;;;;;;;13.45;71.64;98677.78;5046894;28;20057;-61
2024/03/31 08:48:00;;;;;;;11.93;1.85;;;;;;;13.65;71.28;98672.00;5046469;28;20722;-62
2024/03/31 08:50:27;;;;;;;11.25;2.20;;;;;;;13.71;70.65;98662.16;5058352;28;20052;-59
2024/03/31 08:52:53;;;;;;;5.88;1.38;;;;;;;13.76;70.59;98659.03;5065060;28;20044;-58
2024/03/31 08:55:20;;;;;;;7.45;1.63;;;;;;;13.90;70.27;98656.34;5064903;28;20052;-60
2024/03/31 08:57:46;;;;;;;10.75;2.05;;;;;;;14.02;70.01;98644.97;5062986;28;20769;-60
2024/03/31 09:00:13;;;;;;;7.43;1.40;;;;;;;14.20;68.82;98643.91;5049525;28;20055;-60
2024/03/31 09:02:39;;;;;;;11.13;1.85;;;;;;;14.24;69.15;98650.25;5052147;28;20567;-60
2024/03/31 09:05:05;;;;;;;7.35;1.38;;;;;;;14.38;68.31;98657.88;5052404;28;20044;-61
2024/03/31 09:07:32;;;;;;;8.38;1.67;;;;;;;14.46;68.30;98648.41;5035072;28;20052;-60
2024/03/31 09:09:58;;;;;;;9.13;1.65;;;;;;;14.27;68.66;98646.75;5057788;28;20048;-59
2024/03/31 09:12:25;;;;;;;10.02;1.40;;;;;;;14.14;69.27;98644.66;5046439;28;20063;-58
2024/03/31 09:14:51;;;;;;;7.90;1.48;;;;;;;14.48;68.14;98646.06;5049324;28;20060;-59
2024/03/31 09:17:18;;;;;;;9.18;1.40;;;;;;;14.55;68.12;98643.31;5040250;28;20098;-59
2024/03/31 09:19:44;;;;;;;7.13;1.38;;;;;;;14.59;67.84;98642.13;5046016;28;20045;-59
2024/03/31 09:22:13;;;;;;;8.23;1.33;;;;;;;14.57;66.96;98652.03;5036589;28;20056;-60
2024/03/31 09:24:42;;;;;;;6.73;1.40;;;;;;;15.01;66.65;98651.78;5057974;28;20473;-60
2024/03/31 09:27:09;;;;;;;4.18;1.08;;;;;;;14.93;66.58;98650.16;5047172;28;20048;-60
2024/03/31 09:29:40;;;;;;;12.70;1.17;;;;;;;14.97;66.52;98649.00;5020161;28;20040;-57
2024/03/31 09:32:16;;;;;;;6.28;1.05;;;;;;;14.83;66.11;98645.38;5064805;28;20056;-61
2024/03/31 09:34:48;;;;;;;5.70;1.20;;;;;;;14.67;66.39;98645.72;5050213;28;20052;-60
2024/03/31 09:37:15;;;;;;;8.35;1.08;;;;;;;14.71;66.70;98651.28;5053768;28;20055;-59
2024/03/31 09:39:42;;;;;;;6.78;1.40;;;;;;;14.95;66.08;98639.47;5065555;28;20051;-61
2024/03/31 09:42:09;;;;;;;8.32;0.93;;;;;;;14.98;65.54;98647.78;5035803;28;20060;-59
2024/03/31 09:44:36;;;;;;;5.70;0.98;;;;;;;14.86;65.17;98645.38;5045557;28;20549;-62
2024/03/31 09:47:09;;;;;;;2.75;0.80;;;;;;;14.92;65.22;98641.06;5034826;28;20059;-62
2024/03/31 09:49:38;;;;;;;3.17;0.73;;;;;;;15.10;64.59;98639.09;5059309;28;20051;-62
2024/03/31 09:52:04;;;;;;;4.32;0.98;;;;;;;14.88;65.26;98639.44;5036898;28;20060;-62
2024/03/31 09:54:32;;;;;;;5.57;0.80;;;;;;;15.04;64.50;98643.47;5031997;28;20049;-63
2024/03/31 09:57:03;;;;;;;3.38;0.90;;;;;;;15.16;64.93;98647.84;5045835;28;20045;-62
2024/03/31 09:59:31;;;;;;;5.68;0.80;;;;;;;15.02;64.55;98650.56;5056602;28;20044;-62
2024/03/31 10:01:59;;;;;;;3.00;0.70;;;;;;;15.01;64.76;98640.69;5065216;28;20048;-61
2024/03/31 10:04:43;;;;;;;3.10;0.90;;;;;;;15.29;63.79;98649.81;5065126;28;20063;-61
2024/03/31 10:07:09;;;;;;;2.20;0.70;;;;;;;15.34;63.61;98640.34;5045792;28;20095;-62
2024/03/31 10:09:36;;;;;;;5.85;0.98;;;;;;;15.39;63.66;98637.16;5031847;28;20461;-63
2024/03/31 10:12:04;;;;;;;5.88;1.60;;;;;;;15.38;63.31;98632.78;5031312;28;20053;-61
2024/03/31 10:14:33;;;;;;;4.93;0.95;;;;;;;15.05;64.95;98636.72;5039707;28;20049;-62
2024/03/31 10:17:00;;;;;;;3.50;1.00;;;;;;;15.31;64.92;98636.38;5057915;28;20045;-62
2024/03/31 10:19:28;;;;;;;4.68;1.10;;;;;;;15.64;64.02;98638.78;5062125;28;20049;-60
2024/03/31 10:21:55;;;;;;;4.43;1.15;;;;;;;15.84;63.11;98627.25;5045224;28;20048;-62
2024/03/31 10:24:22;;;;;;;2.65;0.88;;;;;;;15.72;63.77;98632.06;5041190;28;20057;-62
2024/03/31 10:26:49;;;;;;;7.78;0.90;;;;;;;16.00;62.98;98635.97;5032901;28;20052;-61
2024/03/31 10:29:16;;;;;;;3.72;0.85;;;;;;;15.91;62.41;98621.69;5036466;28;20044;-62
2024/03/31 10:31:42;;;;;;;5.18;0.80;;;;;;;16.00;62.65;98622.09;5049541;28;20057;-61
2024/03/31 10:34:08;;;;;;;2.40;0.75;;;;;;;16.09;61.61;98617.69;5032852;28;20075;-62
2024/03/31 10:36:37;;;;;;;2.20;0.60;;;;;;;15.90;62.45;98615.34;5035352;28;20055;-61
2024/03/31 10:39:03;;;;;;;3.08;0.90;;;;;;;16.20;62.00;98620.44;5047229;28;20058;-61
2024/03/31 10:41:29;;;;;;;3.63;0.75;;;;;;;16.51;60.20;98612.00;5042471;28;20048;-62
2024/03/31 10:43:56;;;;;;;4.22;1.00;;;;;;;16.32;60.78;98600.56;5056775;28;20063;-62
2024/03/31 10:46:22;;;;;;;2.60;0.80;;;;;;;15.83;62.45;98617.34;5047503;28;20052;-63
2024/03/31 10:48:56;;;;;;;2.47;0.85;;;;;;;15.88;63.33;98612.19;5045582;28;20059;-63
2024/03/31 10:51:23;;;;;;;5.45;0.80;;;;;;;16.09;62.31;98608.56;5058281;28;20741;-63
2024/03/31 10:53:53;;;;;;;3.45;0.77;;;;;;;16.24;61.41;98613.69;5054504;28;20048;-62
2024/03/31 10:56:25;;;;;;;1.75;0.75;;;;;;;16.27;61.37;98603.75;5066288;28;20071;-63
2024/03/31 10:58:51;;;;;;;1.67;0.57;;;;;;;16.16;61.26;98614.88;5052932;28;20692;-65
2024/03/31 11:01:18;;;;;;;5.07;0.80;;;;;;;16.07;61.48;98611.75;5066118;28;20518;-63
2024/03/31 11:03:46;;;;;;;4.30;1.20;;;;;;;16.08;61.81;98610.56;5082649;28;20052;-62
2024/03/31 11:06:14;;;;;;;6.65;0.98;;;;;;;16.17;61.32;98610.13;5046679;28;20053;-63
2024/03/31 11:08:42;;;;;;;5.15;0.85;;;;;;;16.15;61.85;98610.53;5046568;28;20511;-62
2024/03/31 11:11:10;;;;;;;4.70;0.70;;;;;;;16.27;61.21;98610.09;5063418;28;20044;-63
2024/03/31 11:13:37;;;;;;;2.17;0.82;;;;;;;16.11;61.96;98601.41;5061658;28;20052;-63
2024/03/31 11:16:08;;;;;;;3.38;0.80;;;;;;;16.25;61.01;98612.47;5055308;28;20044;-65
2024/03/31 11:18:35;;;;;;;2.80;0.77;;;;;;;16.09;61.92;98609.34;5047682;28;20060;-63
2024/03/31 11:21:09;;;;;;;3.17;0.77;;;;;;;16.24;62.14;98599.00;5049235;28;20048;-63
2024/03/31 11:23:38;;;;;;;3.33;0.90;;;;;;;16.08;61.86;98601.41;5031979;28;20803;-63
2024/03/31 11:26:05;;;;;;;2.70;0.83;;;;;;;16.11;61.90;98595.84;5055326;28;20048;-61
2024/03/31 11:28:35;;;;;;;3.08;0.80;;;;;;;16.26;62.63;98597.41;5062846;28;20395;-63